createdAt,value
2018-07-28T00:01:44.387Z,25.26
2018-07-28T00:04:17.783Z,25.17
2018-07-28T00:06:51.220Z,25.15
2018-07-28T00:09:24.585Z,25.12
2018-07-28T00:11:58.028Z,25.11
2018-07-28T00:14:31.426Z,25.09
2018-07-28T00:17:04.942Z,25.03
2018-07-28T00:19:38.346Z,24.97
2018-07-28T00:22:11.736Z,24.95
2018-07-28T00:24:45.110Z,24.94
2018-07-28T00:27:18.573Z,24.81
2018-07-28T00:29:51.953Z,24.76
2018-07-28T00:32:25.354Z,24.69
2018-07-28T00:34:58.698Z,24.66
2018-07-28T00:37:32.175Z,24.63
2018-07-28T00:40:06.146Z,24.56
2018-07-28T00:42:39.556Z,24.48
2018-07-28T00:45:12.946Z,24.43
2018-07-28T00:47:46.358Z,24.35
2018-07-28T00:50:19.747Z,24.26
2018-07-28T00:52:53.160Z,24.18
2018-07-28T00:55:26.535Z,24.16
2018-07-28T00:57:59.935Z,24.09
2018-07-28T01:00:33.367Z,24.03
2018-07-28T01:03:06.775Z,24.03
2018-07-28T01:05:40.207Z,24.02
2018-07-28T01:08:13.613Z,24.04
2018-07-28T01:10:47.031Z,24.00
2018-07-28T01:13:20.436Z,23.93
2018-07-28T01:15:53.810Z,23.88
2018-07-28T01:18:27.208Z,23.85
2018-07-28T01:21:00.635Z,23.75
2018-07-28T01:23:34.088Z,23.70
2018-07-28T01:26:07.479Z,23.65
2018-07-28T01:28:40.890Z,23.57
2018-07-28T01:31:14.279Z,23.49
2018-07-28T01:33:48.590Z,23.47
2018-07-28T01:36:21.983Z,23.43
2018-07-28T01:38:55.407Z,23.32
2018-07-28T01:41:28.811Z,23.33
2018-07-28T01:44:02.231Z,23.34
2018-07-28T01:46:35.607Z,23.36
2018-07-28T01:49:09.103Z,23.26
2018-07-28T01:51:42.522Z,23.16
2018-07-28T01:54:16.652Z,23.08
2018-07-28T01:56:50.043Z,23.05
2018-07-28T01:59:23.464Z,23.00
2018-07-28T02:01:56.865Z,23.01
2018-07-28T02:04:30.347Z,23.01
2018-07-28T02:07:03.775Z,22.97
2018-07-28T02:09:37.205Z,22.94
2018-07-28T02:12:10.600Z,22.93
2018-07-28T02:14:44.028Z,22.89
2018-07-28T02:17:17.491Z,22.80
2018-07-28T02:19:50.920Z,22.65
2018-07-28T02:22:24.340Z,22.62
2018-07-28T02:24:57.763Z,22.65
2018-07-28T02:27:31.171Z,22.60
2018-07-28T02:30:05.190Z,22.56
2018-07-28T02:32:39.549Z,22.55
2018-07-28T02:35:12.968Z,22.48
2018-07-28T02:37:46.398Z,22.44
2018-07-28T02:40:19.820Z,22.37
2018-07-28T02:42:53.299Z,22.33
2018-07-28T02:45:26.697Z,22.30
2018-07-28T02:48:00.120Z,22.26
2018-07-28T02:50:33.573Z,22.25
2018-07-28T02:53:07.121Z,22.26
2018-07-28T02:55:40.504Z,22.17
2018-07-28T02:58:13.927Z,22.15
2018-07-28T03:00:47.324Z,22.15
2018-07-28T03:03:20.962Z,22.16
2018-07-28T03:05:54.351Z,22.09
2018-07-28T03:08:27.812Z,22.03
2018-07-28T03:11:01.221Z,21.96
2018-07-28T03:13:34.797Z,21.98
2018-07-28T03:16:12.624Z,21.96
2018-07-28T03:18:46.060Z,21.88
2018-07-28T03:21:19.495Z,21.84
2018-07-28T03:23:52.871Z,21.79
2018-07-28T03:26:26.363Z,21.78
2018-07-28T03:28:59.768Z,21.83
2018-07-28T03:31:33.171Z,21.83
2018-07-28T03:34:06.841Z,21.87
2018-07-28T03:36:40.220Z,21.88
2018-07-28T03:39:13.654Z,21.80
2018-07-28T03:41:46.984Z,21.77
2018-07-28T03:44:20.831Z,21.79
2018-07-28T03:46:54.219Z,21.78
2018-07-28T03:49:27.595Z,21.74
2018-07-28T03:52:00.951Z,21.73
2018-07-28T03:54:34.395Z,21.70
2018-07-28T03:57:07.773Z,21.77
2018-07-28T03:59:41.164Z,21.76
2018-07-28T04:02:14.607Z,21.78
2018-07-28T04:04:48.395Z,21.80
2018-07-28T04:07:21.763Z,21.87
2018-07-28T04:09:55.200Z,21.89
2018-07-28T04:12:28.562Z,21.91
2018-07-28T04:15:01.956Z,21.92
2018-07-28T04:17:39.561Z,21.91
2018-07-28T04:20:13.076Z,21.91
2018-07-28T04:22:46.896Z,21.97
2018-07-28T04:25:20.634Z,22.01
2018-07-28T04:27:54.010Z,22.06
2018-07-28T04:30:27.414Z,22.09
2018-07-28T04:33:00.772Z,22.19
2018-07-28T04:35:34.178Z,22.25
2018-07-28T04:38:07.570Z,22.33
2018-07-28T04:40:40.996Z,22.37
2018-07-28T04:43:14.352Z,22.43
2018-07-28T04:45:47.767Z,22.49
2018-07-28T04:48:21.120Z,22.69
2018-07-28T04:50:54.504Z,22.87
2018-07-28T04:53:27.981Z,23.14
2018-07-28T04:56:01.366Z,23.28
2018-07-28T04:58:34.820Z,23.52
2018-07-28T05:01:08.275Z,23.72
2018-07-28T05:03:41.673Z,23.84
2018-07-28T05:06:15.035Z,24.00
2018-07-28T05:08:48.381Z,24.15
2018-07-28T05:11:21.857Z,24.26
2018-07-28T05:13:55.209Z,24.41
2018-07-28T05:16:28.621Z,24.58
2018-07-28T05:19:01.975Z,24.70
2018-07-28T05:21:35.405Z,24.63
2018-07-28T05:24:08.828Z,24.85
2018-07-28T05:26:42.247Z,24.91
2018-07-28T05:29:15.615Z,24.98
2018-07-28T05:31:49.065Z,25.09
2018-07-28T05:34:22.476Z,25.16
2018-07-28T05:36:55.875Z,25.33
2018-07-28T05:39:29.248Z,25.49
2018-07-28T05:42:02.698Z,25.58
2018-07-28T05:44:36.079Z,25.49
2018-07-28T05:47:09.474Z,25.63
2018-07-28T05:49:42.838Z,25.71
2018-07-28T05:52:16.339Z,25.88
2018-07-28T05:54:49.687Z,26.16
2018-07-28T05:57:23.047Z,26.28
2018-07-28T05:59:56.411Z,26.40
2018-07-28T06:02:29.894Z,26.41
2018-07-28T06:05:03.203Z,26.23
2018-07-28T06:07:36.637Z,26.37
2018-07-28T06:10:10.046Z,26.33
2018-07-28T06:12:43.457Z,26.45
2018-07-28T06:15:16.848Z,26.57
2018-07-28T06:17:50.232Z,26.69
2018-07-28T06:20:23.714Z,26.74
2018-07-28T06:22:57.092Z,26.99
2018-07-28T06:25:30.465Z,27.20
2018-07-28T06:28:03.870Z,27.28
2018-07-28T06:30:37.243Z,27.47
2018-07-28T06:33:10.663Z,27.56
2018-07-28T06:35:44.042Z,27.53
2018-07-28T06:38:17.536Z,27.69
2018-07-28T06:40:50.958Z,27.82
2018-07-28T06:43:24.337Z,27.81
2018-07-28T06:45:57.806Z,27.86
2018-07-28T06:48:31.175Z,28.03
2018-07-28T06:51:04.630Z,28.31
2018-07-28T06:53:38.066Z,28.53
2018-07-28T06:56:11.452Z,28.49
2018-07-28T06:58:44.803Z,28.62
2018-07-28T07:01:18.352Z,28.78
2018-07-28T07:03:51.699Z,28.90
2018-07-28T07:06:25.933Z,28.66
2018-07-28T07:09:08.802Z,28.49
2018-07-28T07:11:42.212Z,28.37
2018-07-28T07:14:15.593Z,28.22
2018-07-28T07:16:48.976Z,28.37
2018-07-28T07:19:22.371Z,28.51
2018-07-28T07:21:55.770Z,28.72
2018-07-28T07:24:29.148Z,28.99
2018-07-28T07:27:02.531Z,29.20
2018-07-28T07:29:35.921Z,29.42
2018-07-28T07:32:09.335Z,29.38
2018-07-28T07:34:42.742Z,29.44
2018-07-28T07:37:16.735Z,29.43
2018-07-28T07:39:50.132Z,29.29
2018-07-28T07:42:23.556Z,29.07
2018-07-28T07:44:57.048Z,29.05
2018-07-28T07:47:30.464Z,28.90
2018-07-28T07:50:03.929Z,28.92
2018-07-28T07:52:37.303Z,29.06
2018-07-28T07:55:10.688Z,29.24
2018-07-28T07:57:44.069Z,29.43
2018-07-28T08:00:17.448Z,29.53
2018-07-28T08:02:50.846Z,29.44
2018-07-28T08:05:24.185Z,29.63
2018-07-28T08:07:57.547Z,29.78
2018-07-28T08:10:30.917Z,30.04
2018-07-28T08:13:04.361Z,30.04
2018-07-28T08:15:37.765Z,30.06
2018-07-28T08:18:11.152Z,30.32
2018-07-28T08:20:44.534Z,30.52
2018-07-28T08:23:17.927Z,30.61
2018-07-28T08:25:51.299Z,30.54
2018-07-28T08:28:24.679Z,30.55
2018-07-28T08:30:58.053Z,30.57
2018-07-28T08:33:31.593Z,30.52
2018-07-28T08:36:05.005Z,30.82
2018-07-28T08:38:38.401Z,30.96
2018-07-28T08:41:11.754Z,30.83
2018-07-28T08:43:45.435Z,30.90
2018-07-28T08:46:18.819Z,30.67
2018-07-28T08:48:52.324Z,30.81
2018-07-28T08:51:25.690Z,30.82
2018-07-28T08:53:59.088Z,30.86
2018-07-28T08:56:32.454Z,31.19
2018-07-28T08:59:05.943Z,31.28
2018-07-28T09:01:39.298Z,31.11
2018-07-28T09:04:13.320Z,31.26
2018-07-28T09:06:46.700Z,31.80
2018-07-28T09:09:20.661Z,31.70
2018-07-28T09:11:54.217Z,31.67
2018-07-28T09:14:27.619Z,31.93
2018-07-28T09:17:00.980Z,32.13
2018-07-28T09:19:34.443Z,31.91
2018-07-28T09:22:07.839Z,32.21
2018-07-28T09:24:41.287Z,32.38
2018-07-28T09:27:14.696Z,32.49
2018-07-28T09:29:48.082Z,32.28
2018-07-28T09:32:21.470Z,32.41
2018-07-28T09:34:55.077Z,32.40
2018-07-28T09:37:28.460Z,32.69
2018-07-28T09:40:01.869Z,32.74
2018-07-28T09:42:35.763Z,32.75
2018-07-28T09:45:09.141Z,32.58
2018-07-28T09:47:42.511Z,32.74
2018-07-28T09:50:15.908Z,32.66
2018-07-28T09:52:49.291Z,32.87
2018-07-28T09:55:22.728Z,33.20
2018-07-28T09:57:56.109Z,33.20
2018-07-28T10:00:34.825Z,33.14
2018-07-28T10:03:08.247Z,33.37
2018-07-28T10:05:41.652Z,33.16
2018-07-28T10:08:15.050Z,33.18
2018-07-28T10:10:48.415Z,33.26
2018-07-28T10:13:21.802Z,33.58
2018-07-28T10:15:55.159Z,33.61
2018-07-28T10:18:28.539Z,33.68
2018-07-28T10:21:02.000Z,33.83
2018-07-28T10:23:35.399Z,33.63
2018-07-28T10:26:08.890Z,33.34
2018-07-28T10:28:42.305Z,33.46
2018-07-28T10:31:17.367Z,33.70
2018-07-28T10:33:50.825Z,33.92
2018-07-28T10:36:24.274Z,33.88
2018-07-28T10:38:57.569Z,34.05
2018-07-28T10:41:30.981Z,33.98
2018-07-28T10:44:04.383Z,34.18
2018-07-28T10:46:37.736Z,34.02
2018-07-28T10:49:11.161Z,34.07
2018-07-28T10:51:44.607Z,34.19
2018-07-28T10:54:17.999Z,34.30
2018-07-28T10:56:51.338Z,34.35
2018-07-28T10:59:24.708Z,34.53
2018-07-28T11:01:58.071Z,34.76
2018-07-28T11:04:31.446Z,34.68
2018-07-28T11:07:05.013Z,34.71
2018-07-28T11:09:38.398Z,34.56
2018-07-28T11:12:11.828Z,34.86
2018-07-28T11:14:45.268Z,34.70
2018-07-28T11:17:18.630Z,34.76
2018-07-28T11:19:52.031Z,34.75
2018-07-28T11:22:25.404Z,34.49
2018-07-28T11:24:58.812Z,34.69
2018-07-28T11:27:32.180Z,34.11
2018-07-28T11:30:06.020Z,34.35
2018-07-28T11:32:50.731Z,34.40
2018-07-28T11:35:35.577Z,34.93
2018-07-28T11:38:33.111Z,35.40
2018-07-28T11:41:17.784Z,35.16
2018-07-28T11:44:02.326Z,34.55
2018-07-28T11:46:35.718Z,34.83
2018-07-28T11:49:09.081Z,34.51
2018-07-28T11:51:42.468Z,34.28
2018-07-28T11:54:15.815Z,34.59
2018-07-28T11:56:49.194Z,34.74
2018-07-28T11:59:22.527Z,34.47
2018-07-28T12:01:55.899Z,34.30
2018-07-28T12:04:29.273Z,34.61
2018-07-28T12:07:02.652Z,34.97
2018-07-28T12:09:36.015Z,34.90
2018-07-28T12:12:09.376Z,34.98
2018-07-28T12:14:42.741Z,35.03
2018-07-28T12:17:16.107Z,34.70
2018-07-28T12:19:49.483Z,34.66
2018-07-28T12:22:22.870Z,34.46
2018-07-28T12:24:56.223Z,34.51
2018-07-28T12:27:29.600Z,34.47
2018-07-28T12:30:03.001Z,34.60
2018-07-28T12:32:36.430Z,34.30
2018-07-28T12:35:09.805Z,34.31
2018-07-28T12:37:43.275Z,34.08
2018-07-28T12:40:16.652Z,33.75
2018-07-28T12:42:50.022Z,33.71
2018-07-28T12:45:23.388Z,33.53
2018-07-28T12:47:56.773Z,33.48
2018-07-28T12:50:30.128Z,33.31
2018-07-28T12:53:03.556Z,33.24
2018-07-28T12:55:36.954Z,32.77
2018-07-28T12:58:10.355Z,32.21
2018-07-28T13:00:43.727Z,31.70
2018-07-28T13:03:17.151Z,31.06
2018-07-28T13:05:50.847Z,30.51
2018-07-28T13:08:24.270Z,30.21
2018-07-28T13:10:57.663Z,29.96
2018-07-28T13:13:31.046Z,29.43
2018-07-28T13:16:04.446Z,29.13
2018-07-28T13:18:37.832Z,28.91
2018-07-28T13:21:11.233Z,28.53
2018-07-28T13:23:44.652Z,28.39
2018-07-28T13:26:18.017Z,28.09
2018-07-28T13:28:51.397Z,27.79
2018-07-28T13:31:24.784Z,27.57
2018-07-28T13:33:58.159Z,27.27
2018-07-28T13:36:31.557Z,27.03
2018-07-28T13:39:06.919Z,26.75
2018-07-28T13:41:40.298Z,26.41
2018-07-28T13:44:13.644Z,26.27
2018-07-28T13:46:47.056Z,26.11
2018-07-28T13:49:20.499Z,25.89
2018-07-28T13:51:53.871Z,25.74
2018-07-28T13:54:27.226Z,25.51
2018-07-28T13:57:00.607Z,25.32
2018-07-28T13:59:33.996Z,25.15
2018-07-28T14:02:07.378Z,25.03
2018-07-28T14:04:40.747Z,24.98
2018-07-28T14:07:14.135Z,24.92
2018-07-28T14:09:47.547Z,24.84
2018-07-28T14:12:20.969Z,24.77
2018-07-28T14:14:54.360Z,24.66
2018-07-28T14:17:27.740Z,24.64
2018-07-28T14:20:01.221Z,24.56
2018-07-28T14:22:34.734Z,24.47
2018-07-28T14:25:08.267Z,24.40
2018-07-28T14:27:41.648Z,24.32
2018-07-28T14:30:15.000Z,24.24
2018-07-28T14:32:49.043Z,24.15
2018-07-28T14:35:22.380Z,24.05
2018-07-28T14:37:55.764Z,23.98
2018-07-28T14:40:29.631Z,23.89
2018-07-28T14:43:03.142Z,23.81
2018-07-28T14:45:36.964Z,23.73
2018-07-28T14:48:10.432Z,23.67
2018-07-28T14:50:43.792Z,23.65
2018-07-28T14:53:17.190Z,23.62
2018-07-28T14:55:51.855Z,23.59
2018-07-28T14:58:25.277Z,23.57
2018-07-28T15:00:58.628Z,23.60
2018-07-28T15:03:32.043Z,23.55
2018-07-28T15:06:05.420Z,23.55
2018-07-28T15:08:38.804Z,23.58
2018-07-28T15:11:12.427Z,23.58
2018-07-28T15:13:45.807Z,23.58
2018-07-28T15:16:19.169Z,23.61
2018-07-28T15:18:52.531Z,23.66
2018-07-28T15:21:25.941Z,23.69
2018-07-28T15:23:59.582Z,23.69
2018-07-28T15:26:32.984Z,23.68
2018-07-28T15:29:06.391Z,23.72
2018-07-28T15:31:40.048Z,23.71
2018-07-28T15:34:13.536Z,23.73
2018-07-28T15:36:47.089Z,23.71
2018-07-28T15:39:20.724Z,23.73
2018-07-28T15:41:54.275Z,23.78
2018-07-28T15:44:27.912Z,23.81
2018-07-28T15:47:02.308Z,23.87
2018-07-28T15:49:35.966Z,23.94
2018-07-28T15:52:09.524Z,23.97
2018-07-28T15:54:43.095Z,23.99
2018-07-28T15:57:16.618Z,24.05
2018-07-28T15:59:50.140Z,24.11
2018-07-28T16:02:23.711Z,24.17
2018-07-28T16:04:57.679Z,24.20
2018-07-28T16:07:31.256Z,24.32
2018-07-28T16:10:05.035Z,24.39
2018-07-28T16:12:38.397Z,24.47
2018-07-28T16:15:11.788Z,24.51
2018-07-28T16:17:45.291Z,24.56
2018-07-28T16:20:18.795Z,24.62
2018-07-28T16:22:52.656Z,24.68
2018-07-28T16:25:26.269Z,24.72
2018-07-28T16:27:59.813Z,24.79
2018-07-28T16:30:33.488Z,24.85
2018-07-28T16:33:07.296Z,24.94
2018-07-28T16:35:41.002Z,25.01
2018-07-28T16:38:16.873Z,25.06
2018-07-28T16:40:50.959Z,25.12
2018-07-28T16:43:24.592Z,25.17
2018-07-28T16:45:58.264Z,25.20
2018-07-28T16:48:31.953Z,25.25
2018-07-28T16:51:05.919Z,25.29
2018-07-28T16:53:40.827Z,25.31
2018-07-28T16:56:14.577Z,25.33
2018-07-28T16:58:48.173Z,25.38
2018-07-28T17:01:21.820Z,25.39
2018-07-28T17:03:55.532Z,25.44
2018-07-28T17:06:29.954Z,25.50
2018-07-28T17:09:04.626Z,25.55
2018-07-28T17:11:38.566Z,25.57
2018-07-28T17:14:12.672Z,25.59
2018-07-28T17:16:46.409Z,25.61
2018-07-28T17:19:20.603Z,25.60
2018-07-28T17:21:54.157Z,25.60
2018-07-28T17:24:27.759Z,25.57
2018-07-28T17:27:01.346Z,25.54
2018-07-28T17:29:34.980Z,25.53
2018-07-28T17:32:09.290Z,25.49
2018-07-28T17:34:42.835Z,25.47
2018-07-28T17:37:17.164Z,25.44
2018-07-28T17:39:50.793Z,25.38
2018-07-28T17:42:24.963Z,25.34
2018-07-28T17:44:58.554Z,25.30
2018-07-28T17:47:32.184Z,25.29
2018-07-28T17:50:06.138Z,25.27
2018-07-28T17:52:39.790Z,25.23
2018-07-28T17:55:13.554Z,25.18
2018-07-28T17:57:47.918Z,25.17
2018-07-28T18:00:22.389Z,25.14
2018-07-28T18:02:56.577Z,25.10
2018-07-28T18:05:30.660Z,25.04
2018-07-28T18:08:04.114Z,25.02
2018-07-28T18:10:37.888Z,25.01
2018-07-28T18:13:11.374Z,25.01
2018-07-28T18:15:44.768Z,25.03
2018-07-28T18:18:18.529Z,25.05
2018-07-28T18:20:51.978Z,25.08
2018-07-28T18:23:26.122Z,25.09
2018-07-28T18:25:59.689Z,25.12
2018-07-28T18:28:33.144Z,25.14
2018-07-28T18:31:07.588Z,25.12
2018-07-28T18:33:41.045Z,25.07
2018-07-28T18:36:15.391Z,25.01
2018-07-28T18:38:52.167Z,24.97
2018-07-28T18:41:26.457Z,24.97
2018-07-28T18:44:00.068Z,24.83
2018-07-28T18:46:33.783Z,24.76
2018-07-28T18:49:07.200Z,24.70
2018-07-28T18:51:40.734Z,24.66
2018-07-28T18:54:14.152Z,24.60
2018-07-28T18:56:47.791Z,24.48
2018-07-28T19:00:24.940Z,24.45
2018-07-28T19:02:58.731Z,24.39
2018-07-28T19:05:32.545Z,24.31
2018-07-28T19:08:06.427Z,24.26
2018-07-28T19:10:40.411Z,24.23
2018-07-28T19:13:19.196Z,24.21
2018-07-28T19:15:52.699Z,24.17
2018-07-28T19:18:31.717Z,24.12
2018-07-28T19:21:06.534Z,24.09
2018-07-28T19:23:45.457Z,24.06
2018-07-28T19:26:19.124Z,24.03
2018-07-28T19:29:56.815Z,23.96
2018-07-28T19:32:31.771Z,23.97
2018-07-28T19:35:06.163Z,23.92
2018-07-28T19:37:40.717Z,23.85
2018-07-28T19:40:15.085Z,23.79
2018-07-28T19:42:52.292Z,23.74
2018-07-28T19:45:27.495Z,23.79
2018-07-28T19:48:01.080Z,23.71
2018-07-28T19:50:34.529Z,23.68
2018-07-28T19:53:07.900Z,23.68
2018-07-28T19:55:41.288Z,23.62
2018-07-28T19:58:20.987Z,23.58
2018-07-28T20:00:54.390Z,23.56
2018-07-28T20:03:27.764Z,23.54
2018-07-28T20:06:01.188Z,23.51
2018-07-28T20:08:34.711Z,23.45
2018-07-28T20:11:08.106Z,23.40
2018-07-28T20:13:41.478Z,23.28
2018-07-28T20:16:14.953Z,23.20
2018-07-28T20:18:49.154Z,23.16
2018-07-28T20:21:22.988Z,23.11
2018-07-28T20:23:56.336Z,23.07
2018-07-28T20:26:29.996Z,23.03
2018-07-28T20:29:03.411Z,23.00
2018-07-28T20:31:36.823Z,22.97
2018-07-28T20:34:10.263Z,22.95
2018-07-28T20:36:45.186Z,22.95
2018-07-28T20:39:19.378Z,22.90
2018-07-28T20:41:52.767Z,22.83
2018-07-28T20:44:26.423Z,22.84
2018-07-28T20:47:00.251Z,22.86
2018-07-28T20:49:33.815Z,22.84
2018-07-28T20:52:07.340Z,22.80
2018-07-28T20:54:41.304Z,22.71
2018-07-28T20:57:14.736Z,22.69
2018-07-28T20:59:48.100Z,22.59
2018-07-28T21:02:21.482Z,22.54
2018-07-28T21:04:55.483Z,22.47
2018-07-28T21:07:28.943Z,22.47
2018-07-28T21:10:03.657Z,22.29
2018-07-28T21:12:37.128Z,22.31
2018-07-28T21:15:10.891Z,22.24
2018-07-28T21:17:44.320Z,22.15
2018-07-28T21:20:19.241Z,21.99
2018-07-28T21:22:52.957Z,21.93
2018-07-28T21:25:26.352Z,21.88
2018-07-28T21:28:00.730Z,21.79
2018-07-28T21:30:34.185Z,21.82
2018-07-28T21:33:07.571Z,21.79
2018-07-28T21:35:40.953Z,21.76
2018-07-28T21:38:14.331Z,21.73
2018-07-28T21:40:47.772Z,21.68
2018-07-28T21:43:21.233Z,21.61
2018-07-28T21:45:54.592Z,21.57
2018-07-28T21:48:27.980Z,21.54
2018-07-28T21:51:01.379Z,21.47
2018-07-28T21:53:34.826Z,21.37
2018-07-28T21:56:08.208Z,21.39
2018-07-28T21:58:41.602Z,21.36
2018-07-28T22:01:16.992Z,21.28
2018-07-28T22:03:50.436Z,21.24
2018-07-28T22:06:23.779Z,21.13
2018-07-28T22:08:57.233Z,21.11
2018-07-28T22:11:30.618Z,21.05
2018-07-28T22:14:04.055Z,21.03
2018-07-28T22:16:38.176Z,21.06
2018-07-28T22:19:11.879Z,21.08
2018-07-28T22:21:45.269Z,21.08
2018-07-28T22:24:18.916Z,21.07
2018-07-28T22:26:53.212Z,21.04
2018-07-28T22:29:26.590Z,20.96
2018-07-28T22:32:00.279Z,21.03
2018-07-28T22:34:33.708Z,20.99
2018-07-28T22:37:07.883Z,20.97
2018-07-28T22:39:41.637Z,20.94
2018-07-28T22:42:15.190Z,20.90
2018-07-28T22:44:49.102Z,20.87
2018-07-28T22:47:23.380Z,20.83
2018-07-28T22:49:56.925Z,20.97
2018-07-28T22:52:30.737Z,20.95
2018-07-28T22:55:04.992Z,20.95
2018-07-28T22:57:39.167Z,20.96
2018-07-28T23:00:13.202Z,20.92
2018-07-28T23:02:47.335Z,20.88
2018-07-28T23:05:21.260Z,20.85
2018-07-28T23:07:55.230Z,20.86
2018-07-28T23:10:29.215Z,20.84
2018-07-28T23:13:03.294Z,20.81
2018-07-28T23:15:37.011Z,20.82
2018-07-28T23:18:10.495Z,20.81
2018-07-28T23:20:44.522Z,20.80
2018-07-28T23:23:18.440Z,20.75
2018-07-28T23:25:52.587Z,20.70
2018-07-28T23:28:26.290Z,20.66
2018-07-28T23:31:00.060Z,20.64
2018-07-28T23:33:34.704Z,20.58
2018-07-28T23:36:08.442Z,20.53
2018-07-28T23:38:42.348Z,20.45
2018-07-28T23:41:16.720Z,20.42
2018-07-28T23:43:50.648Z,20.39
2018-07-28T23:46:24.152Z,20.34
2018-07-28T23:48:57.659Z,20.29
2018-07-28T23:51:31.054Z,20.28
2018-07-28T23:54:04.588Z,20.24
2018-07-28T23:56:37.985Z,20.19
2018-07-28T23:59:11.498Z,20.20
